createdAt,value
2019-03-13T00:00:09.163Z,0.20
2019-03-13T00:02:39.565Z,0.20
2019-03-13T00:05:10.350Z,0.20
2019-03-13T00:07:39.660Z,0.20
2019-03-13T00:10:09.550Z,0.10
2019-03-13T00:12:38.748Z,0.10
2019-03-13T00:15:09.173Z,0.10
2019-03-13T00:17:38.520Z,0.10
2019-03-13T00:20:10.791Z,0.00
2019-03-13T00:22:40.254Z,0.00
2019-03-13T00:25:12.602Z,0.00
2019-03-13T00:27:42.594Z,0.00
2019-03-13T00:30:12.063Z,0.00
2019-03-13T00:32:43.556Z,-0.10
2019-03-13T00:35:12.888Z,-0.10
2019-03-13T00:37:42.126Z,-0.10
2019-03-13T00:40:11.623Z,-0.10
2019-03-13T00:42:40.866Z,-0.10
2019-03-13T00:45:10.215Z,-0.10
2019-03-13T00:47:39.449Z,-0.10
2019-03-13T00:50:08.797Z,-0.10
2019-03-13T00:52:38.042Z,-0.10
2019-03-13T00:55:07.314Z,-0.10
2019-03-13T00:57:36.582Z,-0.10
2019-03-13T01:03:48.011Z,-0.10
2019-03-13T01:06:28.957Z,0.00
2019-03-13T01:08:58.358Z,-0.10
2019-03-13T01:11:27.717Z,-0.10
2019-03-13T01:13:56.993Z,-0.10
2019-03-13T01:16:26.307Z,0.00
2019-03-13T01:18:55.582Z,0.00
2019-03-13T01:21:24.905Z,0.00
2019-03-13T01:23:54.227Z,0.10
2019-03-13T01:26:23.477Z,0.10
2019-03-13T01:28:52.737Z,0.10
2019-03-13T01:31:53.251Z,0.20
2019-03-13T01:34:28.696Z,0.20
2019-03-13T01:36:57.937Z,0.20
2019-03-13T01:39:27.263Z,0.30
2019-03-13T01:41:56.533Z,0.20
2019-03-13T01:44:25.880Z,0.20
2019-03-13T01:46:55.119Z,0.20
2019-03-13T01:49:24.479Z,0.20
2019-03-13T01:51:53.747Z,0.20
2019-03-13T01:54:23.279Z,0.20
2019-03-13T01:56:52.664Z,0.10
2019-03-13T01:59:21.890Z,0.10
2019-03-13T02:01:51.110Z,0.10
2019-03-13T02:04:20.794Z,0.00
2019-03-13T02:06:50.054Z,0.00
2019-03-13T02:09:19.358Z,0.00
2019-03-13T02:11:48.594Z,0.00
2019-03-13T02:14:18.495Z,0.00
2019-03-13T02:16:47.740Z,0.00
2019-03-13T02:19:16.971Z,0.00
2019-03-13T02:21:46.215Z,0.00
2019-03-13T02:24:15.458Z,0.00
2019-03-13T02:26:44.940Z,0.00
2019-03-13T02:29:14.280Z,0.00
2019-03-13T02:31:43.622Z,0.10
2019-03-13T02:34:12.848Z,0.10
2019-03-13T02:36:42.180Z,0.20
2019-03-13T02:39:11.535Z,0.20
2019-03-13T02:41:40.860Z,0.30
2019-03-13T02:44:10.200Z,0.30
2019-03-13T02:46:39.492Z,0.30
2019-03-13T02:49:08.790Z,0.40
2019-03-13T02:51:38.030Z,0.40
2019-03-13T02:54:07.554Z,0.40
2019-03-13T02:56:36.788Z,0.40
2019-03-13T02:59:06.025Z,0.40
2019-03-13T03:01:47.602Z,0.40
2019-03-13T03:04:17.006Z,0.50
2019-03-13T03:06:46.245Z,0.40
2019-03-13T03:09:15.588Z,0.50
2019-03-13T03:11:44.947Z,0.50
2019-03-13T03:14:14.193Z,0.50
2019-03-13T03:16:43.438Z,0.60
2019-03-13T03:19:12.781Z,0.60
2019-03-13T03:21:42.090Z,0.60
2019-03-13T03:24:11.418Z,0.60
2019-03-13T03:26:40.726Z,0.60
2019-03-13T03:29:09.974Z,0.50
2019-03-13T03:31:39.228Z,0.50
2019-03-13T03:34:08.543Z,0.60
2019-03-13T03:36:37.771Z,0.60
2019-03-13T03:39:07.472Z,0.50
2019-03-13T03:41:36.909Z,0.50
2019-03-13T03:44:06.276Z,0.50
2019-03-13T03:46:35.515Z,0.50
2019-03-13T03:49:04.837Z,0.50
2019-03-13T03:51:34.080Z,0.50
2019-03-13T03:54:03.416Z,0.50
2019-03-13T03:56:32.678Z,0.50
2019-03-13T03:59:02.005Z,0.60
2019-03-13T04:01:31.799Z,0.60
2019-03-13T04:04:01.047Z,0.60
2019-03-13T04:06:30.370Z,0.70
2019-03-13T04:08:59.684Z,0.70
2019-03-13T04:11:28.995Z,0.80
2019-03-13T04:13:58.332Z,0.80
2019-03-13T04:16:27.646Z,0.90
2019-03-13T04:18:57.043Z,1.00
2019-03-13T04:21:26.343Z,1.00
2019-03-13T04:23:55.705Z,1.00
2019-03-13T04:26:25.055Z,1.00
2019-03-13T04:28:54.290Z,1.10
2019-03-13T04:31:23.621Z,1.10
2019-03-13T04:33:52.883Z,1.10
2019-03-13T04:36:22.221Z,1.10
2019-03-13T04:38:51.428Z,1.10
2019-03-13T04:41:20.712Z,1.10
2019-03-13T04:43:50.039Z,1.10
2019-03-13T04:46:19.345Z,1.10
2019-03-13T04:48:48.662Z,1.10
2019-03-13T04:51:17.927Z,1.10
2019-03-13T04:53:47.211Z,1.20
2019-03-13T04:56:16.533Z,1.20
2019-03-13T04:58:45.771Z,1.20
2019-03-13T05:01:15.116Z,1.20
2019-03-13T05:03:44.683Z,1.20
2019-03-13T05:06:23.655Z,1.30
2019-03-13T05:09:10.106Z,1.30
2019-03-13T05:11:39.405Z,1.40
2019-03-13T05:14:08.640Z,1.50
2019-03-13T05:16:38.459Z,1.50
2019-03-13T05:19:08.175Z,1.50
2019-03-13T05:21:37.415Z,1.60
2019-03-13T05:24:06.665Z,1.60
2019-03-13T05:26:35.987Z,1.60
2019-03-13T05:29:05.419Z,1.70
2019-03-13T05:31:34.770Z,1.70
2019-03-13T05:34:04.008Z,1.70
2019-03-13T05:36:33.325Z,1.70
2019-03-13T05:39:02.572Z,1.70
2019-03-13T05:41:31.838Z,1.70
2019-03-13T05:44:01.059Z,1.70
2019-03-13T05:46:30.372Z,1.80
2019-03-13T05:48:59.701Z,1.80
2019-03-13T05:51:29.020Z,1.80
2019-03-13T05:53:58.365Z,1.80
2019-03-13T05:56:27.609Z,1.90
2019-03-13T05:58:56.850Z,1.90
2019-03-13T06:01:26.171Z,1.90
2019-03-13T06:03:55.397Z,2.00
2019-03-13T06:06:25.278Z,2.00
2019-03-13T06:08:54.510Z,2.00
2019-03-13T06:11:23.748Z,2.10
2019-03-13T06:13:53.168Z,2.20
2019-03-13T06:16:22.403Z,2.20
2019-03-13T06:18:52.870Z,2.30
2019-03-13T06:21:22.594Z,2.40
2019-03-13T06:23:51.838Z,2.50
2019-03-13T06:26:22.023Z,2.50
2019-03-13T06:28:51.693Z,2.60
2019-03-13T06:31:21.348Z,2.70
2019-03-13T06:33:50.679Z,2.70
2019-03-13T06:36:19.996Z,2.70
2019-03-13T06:38:49.269Z,2.70
2019-03-13T06:41:18.515Z,2.70
2019-03-13T06:43:47.751Z,2.70
2019-03-13T06:46:17.099Z,2.70
2019-03-13T06:48:46.767Z,2.70
2019-03-13T06:51:16.086Z,2.70
2019-03-13T06:53:45.395Z,2.70
2019-03-13T06:56:14.647Z,2.80
2019-03-13T06:59:02.913Z,2.80
2019-03-13T07:02:00.291Z,2.80
2019-03-13T07:04:54.536Z,2.90
2019-03-13T07:07:40.976Z,2.90
2019-03-13T07:10:29.368Z,2.90
2019-03-13T07:13:35.938Z,3.00
2019-03-13T07:16:24.119Z,3.00
2019-03-13T07:19:11.408Z,3.10
2019-03-13T07:21:58.575Z,3.10
2019-03-13T07:24:35.509Z,3.20
2019-03-13T07:27:23.207Z,3.20
2019-03-13T07:30:01.425Z,3.20
2019-03-13T07:32:52.495Z,3.30
2019-03-13T07:35:28.473Z,3.30
2019-03-13T07:38:25.578Z,3.30
2019-03-13T07:41:19.775Z,3.30
2019-03-13T07:43:55.752Z,3.30
2019-03-13T07:46:44.031Z,3.30
2019-03-13T07:49:32.337Z,3.40
2019-03-13T07:52:20.656Z,3.40
2019-03-13T07:54:58.574Z,3.50
2019-03-13T07:57:46.914Z,3.60
2019-03-13T08:00:26.169Z,3.60
2019-03-13T08:03:12.645Z,3.60
2019-03-13T08:06:12.999Z,3.70
2019-03-13T08:08:49.531Z,3.70
2019-03-13T08:11:28.772Z,3.90
2019-03-13T08:14:11.263Z,3.90
2019-03-13T08:17:02.843Z,4.00
2019-03-13T08:19:54.209Z,4.10
2019-03-13T08:22:51.533Z,4.20
2019-03-13T08:25:33.245Z,4.20
2019-03-13T08:28:27.633Z,4.40
2019-03-13T08:31:21.883Z,4.40
2019-03-13T08:34:13.135Z,4.40
2019-03-13T08:37:00.296Z,4.50
2019-03-13T08:39:47.298Z,4.50
2019-03-13T08:42:38.339Z,4.60
2019-03-13T08:45:40.875Z,4.80
2019-03-13T08:48:20.075Z,4.90
2019-03-13T08:51:01.670Z,5.00
2019-03-13T08:53:49.943Z,4.80
2019-03-13T08:56:32.328Z,4.70
2019-03-13T08:59:19.214Z,4.80
2019-03-13T09:02:13.548Z,4.70
2019-03-13T09:05:07.455Z,4.70
2019-03-13T09:07:47.128Z,4.70
2019-03-13T09:10:39.011Z,4.80
2019-03-13T09:13:16.225Z,4.90
2019-03-13T09:16:04.741Z,4.90
2019-03-13T09:18:41.955Z,5.00
2019-03-13T09:21:33.717Z,5.10
2019-03-13T09:24:17.718Z,5.20
2019-03-13T09:27:18.137Z,5.30
2019-03-13T09:30:12.383Z,5.30
2019-03-13T09:32:59.649Z,5.40
2019-03-13T09:35:38.366Z,5.50
2019-03-13T09:38:25.471Z,5.50
2019-03-13T09:41:25.783Z,5.60
2019-03-13T09:44:09.701Z,5.60
2019-03-13T09:47:12.996Z,5.60
2019-03-13T09:49:50.200Z,5.60
2019-03-13T09:52:41.249Z,5.50
2019-03-13T09:55:36.665Z,5.50
2019-03-13T09:58:30.798Z,5.60
2019-03-13T10:01:13.311Z,5.60
2019-03-13T10:04:02.181Z,5.30
2019-03-13T10:06:59.857Z,5.20
2019-03-13T10:09:42.307Z,5.20
2019-03-13T10:12:20.635Z,5.00
2019-03-13T10:14:58.086Z,4.90
2019-03-13T10:17:37.061Z,4.80
2019-03-13T10:20:32.047Z,4.70
2019-03-13T10:23:35.399Z,4.70
2019-03-13T10:26:23.835Z,4.60
2019-03-13T10:29:21.187Z,4.70
2019-03-13T10:32:08.359Z,4.80
2019-03-13T10:35:01.485Z,4.80
2019-03-13T10:37:48.579Z,4.90
2019-03-13T10:40:42.676Z,4.90
2019-03-13T10:43:29.588Z,5.00
2019-03-13T10:46:13.166Z,5.10
2019-03-13T10:48:53.321Z,5.20
2019-03-13T10:51:50.476Z,5.20
2019-03-13T10:54:34.916Z,5.30
2019-03-13T10:57:13.783Z,5.40
2019-03-13T10:59:54.887Z,5.50
2019-03-13T11:02:49.250Z,5.50
2019-03-13T11:05:37.548Z,5.60
2019-03-13T11:08:44.242Z,5.60
2019-03-13T11:11:35.095Z,5.60
2019-03-13T11:14:15.771Z,5.70
2019-03-13T11:17:06.679Z,5.70
2019-03-13T11:19:57.978Z,5.70
2019-03-13T11:22:52.097Z,5.70
2019-03-13T11:25:37.415Z,5.70
2019-03-13T11:28:13.590Z,5.70
2019-03-13T11:31:04.643Z,5.80
2019-03-13T11:33:53.311Z,5.90
2019-03-13T11:36:39.332Z,5.90
2019-03-13T11:39:16.564Z,5.90
2019-03-13T11:42:03.956Z,5.90
2019-03-13T11:45:10.685Z,5.90
2019-03-13T11:47:58.075Z,5.90
2019-03-13T11:50:35.921Z,5.90
2019-03-13T11:53:23.093Z,5.90
2019-03-13T11:56:03.792Z,5.90
2019-03-13T11:59:07.365Z,5.90
2019-03-13T12:01:58.349Z,5.90
2019-03-13T12:04:46.930Z,5.90
2019-03-13T12:07:33.781Z,5.90
2019-03-13T12:10:16.229Z,5.80
2019-03-13T12:12:57.292Z,5.80
2019-03-13T12:15:46.055Z,5.70
2019-03-13T12:18:36.236Z,5.60
2019-03-13T12:21:17.426Z,5.60
2019-03-13T12:23:53.676Z,5.60
2019-03-13T12:26:38.682Z,5.60
2019-03-13T12:29:33.017Z,5.60
2019-03-13T12:32:18.547Z,5.60
2019-03-13T12:35:02.431Z,5.70
2019-03-13T12:37:50.737Z,5.70
2019-03-13T12:40:37.627Z,5.70
2019-03-13T12:43:24.751Z,5.70
2019-03-13T12:46:09.668Z,5.80
2019-03-13T12:48:49.535Z,5.80
2019-03-13T12:51:37.821Z,5.80
2019-03-13T12:54:27.121Z,5.90
2019-03-13T12:57:15.451Z,6.00
2019-03-13T13:00:21.916Z,6.00
2019-03-13T13:03:01.478Z,6.10
2019-03-13T13:05:42.788Z,6.20
2019-03-13T13:08:37.267Z,6.30
2019-03-13T13:11:37.804Z,6.30
2019-03-13T13:14:19.655Z,6.40
2019-03-13T13:17:13.742Z,6.60
2019-03-13T13:19:43.025Z,7.00
2019-03-13T13:22:12.286Z,7.80
2019-03-13T13:24:41.935Z,8.30
2019-03-13T13:27:11.386Z,8.50
2019-03-13T13:29:40.644Z,8.50
2019-03-13T13:32:09.886Z,8.50
2019-03-13T13:34:39.127Z,8.60
2019-03-13T13:37:08.444Z,8.70
2019-03-13T13:39:37.714Z,8.50
2019-03-13T13:42:07.023Z,8.10
2019-03-13T13:44:36.266Z,8.10
2019-03-13T13:47:05.625Z,8.00
2019-03-13T13:49:34.991Z,8.50
2019-03-13T13:52:04.227Z,8.90
2019-03-13T13:54:33.601Z,9.30
2019-03-13T13:57:02.901Z,9.50
2019-03-13T13:59:32.141Z,9.60
2019-03-13T14:02:01.434Z,9.60
2019-03-13T14:04:30.684Z,9.70
2019-03-13T14:06:59.925Z,9.70
2019-03-13T14:09:29.239Z,9.80
2019-03-13T14:11:58.567Z,10.10
2019-03-13T14:14:28.359Z,10.20
2019-03-13T14:16:59.974Z,10.30
2019-03-13T14:19:29.292Z,10.30
2019-03-13T14:21:58.685Z,10.20
2019-03-13T14:24:27.974Z,9.90
2019-03-13T14:26:57.251Z,9.60
2019-03-13T14:29:26.966Z,9.70
2019-03-13T14:31:56.367Z,9.70
2019-03-13T14:34:25.727Z,10.00
2019-03-13T14:36:55.061Z,10.10
2019-03-13T14:39:24.310Z,10.20
2019-03-13T14:41:53.622Z,10.30
2019-03-13T14:44:22.967Z,10.20
2019-03-13T14:46:52.561Z,10.20
2019-03-13T14:49:21.953Z,10.10
2019-03-13T14:51:51.288Z,10.10
2019-03-13T14:54:20.587Z,9.90
2019-03-13T14:56:49.909Z,9.50
2019-03-13T14:59:19.177Z,9.10
2019-03-13T15:01:48.537Z,9.10
2019-03-13T15:04:17.780Z,9.20
2019-03-13T15:06:47.020Z,9.40
2019-03-13T15:09:16.269Z,9.60
2019-03-13T15:11:46.088Z,9.90
2019-03-13T15:14:15.403Z,9.70
2019-03-13T15:16:44.654Z,9.80
2019-03-13T15:19:14.038Z,9.90
2019-03-13T15:21:43.285Z,9.80
2019-03-13T15:24:12.602Z,9.50
2019-03-13T15:26:41.913Z,9.50
2019-03-13T15:29:11.081Z,9.60
2019-03-13T15:31:40.388Z,9.50
2019-03-13T15:34:09.699Z,9.40
2019-03-13T15:36:38.942Z,9.40
2019-03-13T15:39:08.716Z,9.30
2019-03-13T15:41:38.046Z,9.20
2019-03-13T15:44:07.409Z,9.30
2019-03-13T15:46:36.714Z,9.30
2019-03-13T15:49:05.947Z,9.20
2019-03-13T15:51:38.530Z,9.00
2019-03-13T15:54:07.260Z,8.80
2019-03-13T15:56:36.528Z,8.60
2019-03-13T15:59:06.042Z,8.40
2019-03-13T16:01:35.291Z,8.30
2019-03-13T16:04:04.672Z,8.10
2019-03-13T16:06:34.323Z,8.10
2019-03-13T16:09:04.448Z,8.00
2019-03-13T16:11:33.804Z,7.90
2019-03-13T16:14:03.121Z,7.80
2019-03-13T16:16:32.463Z,7.60
2019-03-13T16:19:01.795Z,7.40
2019-03-13T16:21:31.148Z,7.30
2019-03-13T16:24:00.463Z,7.20
2019-03-13T16:26:29.802Z,7.10
2019-03-13T16:28:59.476Z,7.00
2019-03-13T16:31:28.800Z,6.90
2019-03-13T16:33:58.101Z,6.80
2019-03-13T16:36:27.440Z,6.70
2019-03-13T16:38:56.781Z,6.70
2019-03-13T16:41:26.660Z,6.60
2019-03-13T16:43:55.930Z,6.50
2019-03-13T16:46:25.182Z,6.30
2019-03-13T16:48:54.522Z,6.20
2019-03-13T16:51:23.793Z,6.10
2019-03-13T16:53:54.323Z,6.00
2019-03-13T16:56:23.654Z,5.90
2019-03-13T16:58:55.031Z,5.80
2019-03-13T17:01:24.348Z,5.70
2019-03-13T17:03:53.595Z,5.70
2019-03-13T17:06:22.967Z,5.60
2019-03-13T17:08:52.277Z,5.50
2019-03-13T17:11:21.519Z,5.50
2019-03-13T17:13:50.779Z,5.40
2019-03-13T17:16:20.085Z,5.40
2019-03-13T17:18:49.435Z,5.30
2019-03-13T17:21:18.784Z,5.20
2019-03-13T17:23:48.114Z,5.10
2019-03-13T17:26:17.404Z,5.00
2019-03-13T17:28:46.641Z,5.00
2019-03-13T17:31:15.894Z,5.00
2019-03-13T17:33:45.462Z,4.90
2019-03-13T17:36:15.063Z,5.00
2019-03-13T17:38:44.321Z,4.90
2019-03-13T17:41:13.659Z,4.90
2019-03-13T17:43:43.231Z,4.90
2019-03-13T17:46:12.613Z,4.80
2019-03-13T17:48:41.866Z,4.80
2019-03-13T17:51:11.213Z,4.80
2019-03-13T17:53:40.499Z,4.80
2019-03-13T17:56:10.386Z,4.70
2019-03-13T17:58:39.712Z,4.70
2019-03-13T18:01:09.600Z,4.60
2019-03-13T18:03:39.656Z,4.50
2019-03-13T18:06:08.988Z,4.50
2019-03-13T18:08:38.268Z,4.40
2019-03-13T18:11:07.929Z,4.50
2019-03-13T18:13:37.277Z,4.40
2019-03-13T18:16:06.534Z,4.40
2019-03-13T18:18:35.878Z,4.40
2019-03-13T18:21:05.199Z,4.30
2019-03-13T18:23:34.518Z,4.30
2019-03-13T18:26:03.867Z,4.30
2019-03-13T18:28:33.097Z,4.20
2019-03-13T18:31:02.533Z,4.20
2019-03-13T18:33:31.765Z,4.20
2019-03-13T18:36:01.035Z,4.10
2019-03-13T18:38:30.317Z,4.00
2019-03-13T18:40:59.575Z,4.00
2019-03-13T18:43:28.922Z,4.00
2019-03-13T18:45:58.250Z,4.00
2019-03-13T18:48:27.903Z,4.00
2019-03-13T18:50:57.156Z,4.00
2019-03-13T18:53:26.438Z,4.00
2019-03-13T18:55:55.757Z,4.00
2019-03-13T18:58:25.138Z,4.00
2019-03-13T19:00:54.524Z,4.00
2019-03-13T19:03:23.824Z,4.00
2019-03-13T19:05:54.728Z,4.00
2019-03-13T19:08:26.929Z,4.00
2019-03-13T19:10:55.085Z,3.90
2019-03-13T19:13:24.329Z,3.90
2019-03-13T19:15:53.575Z,3.90
2019-03-13T19:18:23.026Z,3.90
2019-03-13T19:20:54.643Z,3.80
2019-03-13T19:23:23.985Z,3.80
2019-03-13T19:25:53.331Z,3.70
2019-03-13T19:28:22.610Z,3.60
2019-03-13T19:30:51.919Z,3.60
2019-03-13T19:33:21.172Z,3.50
2019-03-13T19:35:50.577Z,3.50
2019-03-13T19:38:19.813Z,3.40
2019-03-13T19:40:48.988Z,3.40
2019-03-13T19:43:18.362Z,3.40
2019-03-13T19:45:47.701Z,3.30
2019-03-13T19:48:17.053Z,3.30
2019-03-13T19:50:46.428Z,3.30
2019-03-13T19:53:15.752Z,3.30
2019-03-13T19:55:44.982Z,3.30
2019-03-13T19:58:14.245Z,3.30
2019-03-13T20:00:43.623Z,3.30
2019-03-13T20:03:13.028Z,3.30
2019-03-13T20:05:45.802Z,3.30
2019-03-13T20:08:14.101Z,3.30
2019-03-13T20:10:44.748Z,3.20
2019-03-13T20:13:14.241Z,3.20
2019-03-13T20:15:43.521Z,3.20
2019-03-13T20:18:12.775Z,3.20
2019-03-13T20:20:42.021Z,3.20
2019-03-13T20:23:11.422Z,3.20
2019-03-13T20:25:40.752Z,3.20
2019-03-13T20:28:10.089Z,3.20
2019-03-13T20:30:39.341Z,3.10
2019-03-13T20:33:11.010Z,3.20
2019-03-13T20:35:40.708Z,3.20
2019-03-13T20:38:10.001Z,3.20
2019-03-13T20:40:39.239Z,3.20
2019-03-13T20:43:09.697Z,3.20
2019-03-13T20:45:39.114Z,3.20
2019-03-13T20:48:08.397Z,3.20
2019-03-13T20:50:38.288Z,3.20
2019-03-13T20:53:07.721Z,3.20
2019-03-13T20:55:37.088Z,3.20
2019-03-13T20:58:07.023Z,3.30
2019-03-13T21:00:36.375Z,3.40
2019-03-13T21:03:06.462Z,3.50
2019-03-13T21:05:35.808Z,3.50
2019-03-13T21:08:05.120Z,3.60
2019-03-13T21:10:34.497Z,3.60
2019-03-13T21:13:03.907Z,3.70
2019-03-13T21:15:33.235Z,3.80
2019-03-13T21:18:03.179Z,3.80
2019-03-13T21:20:32.604Z,3.90
2019-03-13T21:23:01.922Z,4.00
2019-03-13T21:25:31.325Z,4.00
2019-03-13T21:28:00.795Z,4.10
2019-03-13T21:30:30.136Z,4.10
2019-03-13T21:32:59.998Z,4.10
2019-03-13T21:35:29.368Z,4.10
2019-03-13T21:37:58.622Z,4.10
2019-03-13T21:40:28.020Z,4.10
2019-03-13T21:42:58.031Z,4.10
2019-03-13T21:45:39.959Z,4.10
2019-03-13T21:47:58.235Z,4.10
2019-03-13T21:50:27.512Z,4.00
2019-03-13T21:52:57.277Z,4.00
2019-03-13T21:55:27.494Z,4.00
2019-03-13T21:57:57.229Z,4.00
2019-03-13T22:00:26.970Z,4.00
2019-03-13T22:02:56.821Z,3.90
2019-03-13T22:05:27.348Z,3.80
2019-03-13T22:07:57.533Z,3.80
2019-03-13T22:10:26.935Z,3.80
2019-03-13T22:12:56.170Z,3.70
2019-03-13T22:15:25.519Z,3.70
2019-03-13T22:17:54.772Z,3.70
2019-03-13T22:20:24.007Z,3.60
2019-03-13T22:22:53.346Z,3.60
2019-03-13T22:25:22.711Z,3.50
2019-03-13T22:27:51.989Z,3.50
2019-03-13T22:30:22.054Z,3.50
2019-03-13T22:32:52.047Z,3.50
2019-03-13T22:35:22.125Z,3.50
2019-03-13T22:37:51.450Z,3.40
2019-03-13T22:40:20.701Z,3.50
2019-03-13T22:42:49.975Z,3.50
2019-03-13T22:45:19.453Z,3.50
2019-03-13T22:47:48.715Z,3.50
2019-03-13T22:50:18.489Z,3.50
2019-03-13T22:56:56.418Z,3.40
2019-03-13T22:59:25.756Z,3.30
2019-03-13T23:01:54.994Z,3.30
2019-03-13T23:04:24.385Z,3.30
2019-03-13T23:06:53.639Z,3.40
2019-03-13T23:09:22.905Z,3.40
2019-03-13T23:11:52.270Z,3.40
2019-03-13T23:14:21.724Z,3.40
2019-03-13T23:16:50.991Z,3.40
2019-03-13T23:19:20.232Z,3.30
2019-03-13T23:21:49.544Z,3.30
2019-03-13T23:24:18.785Z,3.30
2019-03-13T23:26:48.030Z,3.30
2019-03-13T23:29:17.577Z,3.30
2019-03-13T23:31:47.094Z,3.30
2019-03-13T23:34:16.652Z,3.20
2019-03-13T23:36:46.135Z,3.20
2019-03-13T23:39:17.031Z,3.30
2019-03-13T23:41:46.387Z,3.20
2019-03-13T23:44:15.707Z,3.30
2019-03-13T23:46:45.030Z,3.30
2019-03-13T23:49:14.314Z,3.40
2019-03-13T23:51:43.624Z,3.40
2019-03-13T23:54:12.988Z,3.40
2019-03-13T23:56:42.244Z,3.50
2019-03-13T23:59:11.489Z,3.60
